Time;durP1;ratioP1;P1;durP2;ratioP2;P2;SDS_P1;SDS_P2;PMS_P1;PMS_P2;Temp;Humidity;BMP_temperature;BMP_pressure;BME280_temperature;BME280_humidity;BME280_pressure;Samples;Min_cycle;Max_cycle;Signal;HPM_P1;HPM_P2
2023/08/29 00:00:54;;;;;;;20.43;10.58;;;;;;;21.99;100.00;99059.91;1431146;90;22306;-78
2023/08/29 00:03:20;;;;;;;17.82;9.65;;;;;;;22.01;100.00;99065.86;1435671;91;21375;-79
2023/08/29 00:05:46;;;;;;;21.85;11.00;;;;;;;22.01;100.00;99065.86;1425658;91;21362;-78
2023/08/29 00:08:12;;;;;;;14.95;11.40;;;;;;;22.01;100.00;99071.24;1420206;91;21488;-77
2023/08/29 00:10:38;;;;;;;17.00;10.88;;;;;;;22.02;100.00;99078.25;1432608;91;21533;-79
2023/08/29 00:13:05;;;;;;;16.90;10.15;;;;;;;22.01;100.00;99069.06;1433330;90;21347;-78
2023/08/29 00:15:32;;;;;;;20.68;10.48;;;;;;;21.99;100.00;99076.06;1423945;90;21478;-78
2023/08/29 00:18:00;;;;;;;23.30;10.40;;;;;;;21.93;100.00;99077.63;1444797;91;22403;-79
2023/08/29 00:20:26;;;;;;;16.35;11.83;;;;;;;21.72;100.00;99072.55;1428296;91;21368;-78
2023/08/29 00:22:52;;;;;;;21.52;10.25;;;;;;;21.72;100.00;99072.55;1429897;91;21346;-78
2023/08/29 00:25:18;;;;;;;16.52;10.58;;;;;;;21.42;100.00;99083.80;1424203;91;21361;-78
2023/08/29 00:27:45;;;;;;;13.78;9.80;;;;;;;21.42;100.00;99083.80;1425833;91;21472;-78
2023/08/29 00:30:12;;;;;;;17.55;10.80;;;;;;;21.28;100.00;99107.55;1433076;90;21405;-78
2023/08/29 00:32:38;;;;;;;18.70;10.13;;;;;;;21.16;100.00;99089.64;1438088;90;21468;-78
2023/08/29 00:35:05;;;;;;;15.38;10.63;;;;;;;21.15;100.00;99092.06;1436522;90;22410;-79
2023/08/29 00:37:32;;;;;;;18.98;10.60;;;;;;;21.12;100.00;99088.53;1429547;91;21398;-78
2023/08/29 00:39:58;;;;;;;18.57;11.15;;;;;;;21.09;100.00;99098.95;1434089;91;21383;-78
2023/08/29 00:42:24;;;;;;;12.93;10.00;;;;;;;21.07;100.00;99093.83;1421781;91;21843;-78
2023/08/29 00:44:51;;;;;;;24.00;10.25;;;;;;;21.08;100.00;99081.19;1427560;90;21419;-78
2023/08/29 00:47:17;;;;;;;16.52;9.40;;;;;;;21.10;100.00;99075.84;1421279;91;21460;-77
2023/08/29 00:49:43;;;;;;;13.58;10.15;;;;;;;21.07;100.00;99070.97;1433343;90;22269;-78
2023/08/29 00:52:10;;;;;;;23.18;9.98;;;;;;;21.04;100.00;99067.44;1428837;91;21360;-78
2023/08/29 00:54:36;;;;;;;12.47;10.38;;;;;;;21.03;100.00;99067.16;1423629;90;22271;-77
2023/08/29 00:57:03;;;;;;;14.38;9.30;;;;;;;21.01;100.00;99062.55;1428822;91;21755;-79
2023/08/29 00:59:29;;;;;;;17.98;10.72;;;;;;;21.00;100.00;99054.18;1435036;91;22107;-78
2023/08/29 01:01:55;;;;;;;16.30;9.38;;;;;;;20.99;100.00;99049.88;1435338;90;22410;-79
2023/08/29 01:04:22;;;;;;;18.30;10.85;;;;;;;21.00;100.00;99047.45;1423777;91;21429;-78
2023/08/29 01:06:48;;;;;;;14.25;8.55;;;;;;;21.03;100.00;99042.11;1432541;91;21412;-79
2023/08/29 01:09:15;;;;;;;13.80;9.60;;;;;;;21.05;100.00;99039.46;1433770;91;22255;-79
2023/08/29 01:12:04;;;;;;;14.28;9.85;;;;;;;21.06;100.00;99038.92;1426475;91;21332;-79
2023/08/29 01:14:41;;;;;;;14.90;9.13;;;;;;;21.04;100.00;99031.13;1407634;91;21441;-79
2023/08/29 01:17:19;;;;;;;26.52;9.78;;;;;;;21.01;100.00;99038.34;1427013;91;21569;-77
2023/08/29 01:19:50;;;;;;;31.90;9.78;;;;;;;20.98;100.00;99156.38;1427756;91;21377;-77
2023/08/29 01:22:31;;;;;;;12.30;7.03;;;;;;;20.96;100.00;99149.34;1422067;91;21923;-77
2023/08/29 01:25:12;;;;;;;26.33;8.15;;;;;;;21.23;100.00;99097.52;1425776;91;21384;-77
2023/08/29 01:27:39;;;;;;;16.35;8.13;;;;;;;21.58;100.00;99131.38;1430258;91;21450;-77
2023/08/29 01:30:07;;;;;;;24.55;7.72;;;;;;;21.81;100.00;99137.84;1424078;91;21385;-78
2023/08/29 01:32:34;;;;;;;16.07;7.58;;;;;;;21.96;100.00;99102.70;1425387;90;21541;-77
2023/08/29 01:35:03;;;;;;;17.37;7.60;;;;;;;22.05;100.00;99074.23;1430063;90;22402;-78
2023/08/29 01:37:29;;;;;;;12.28;7.15;;;;;;;22.04;100.00;99072.62;1415401;91;21577;-78
2023/08/29 01:39:55;;;;;;;11.33;6.87;;;;;;;22.06;100.00;99122.45;1416005;91;22249;-78
2023/08/29 01:42:21;;;;;;;21.23;8.05;;;;;;;22.14;100.00;99139.24;1430514;90;21413;-78
2023/08/29 01:44:48;;;;;;;16.73;7.85;;;;;;;22.17;100.00;99106.40;1435778;91;21360;-77
2023/08/29 01:47:14;;;;;;;15.10;7.03;;;;;;;22.16;100.00;99072.45;1422812;91;22440;-79
2023/08/29 01:49:40;;;;;;;13.53;7.15;;;;;;;22.03;100.00;99085.79;1427146;91;21377;-79
2023/08/29 01:52:07;;;;;;;12.70;6.30;;;;;;;22.03;100.00;99085.79;1423700;91;21356;-79
2023/08/29 01:54:33;;;;;;;20.25;7.03;;;;;;;21.99;100.00;99095.46;1425878;91;21421;-79
2023/08/29 01:57:02;;;;;;;12.43;7.80;;;;;;;21.93;100.00;99097.83;1403796;91;21504;-79
2023/08/29 01:59:29;;;;;;;16.70;6.92;;;;;;;21.91;100.00;99087.83;1410329;91;21282;-78
2023/08/29 02:01:57;;;;;;;19.98;6.80;;;;;;;21.95;100.00;99089.78;1425357;90;21392;-78
2023/08/29 02:04:24;;;;;;;15.25;7.50;;;;;;;21.86;100.00;99108.78;1421403;91;22405;-78
2023/08/29 02:06:50;;;;;;;12.93;6.47;;;;;;;21.86;100.00;99131.67;1429369;91;21415;-78
2023/08/29 02:09:16;;;;;;;17.90;7.22;;;;;;;21.74;100.00;99112.16;1423508;91;21407;-78
2023/08/29 02:11:42;;;;;;;13.15;7.50;;;;;;;21.74;100.00;99122.93;1425210;91;21267;-78
2023/08/29 02:14:10;;;;;;;13.78;6.67;;;;;;;21.66;100.00;99087.03;1436066;90;21545;-78
2023/08/29 02:16:36;;;;;;;14.85;6.22;;;;;;;21.66;100.00;99087.03;1424548;91;21367;-79
2023/08/29 02:19:03;;;;;;;15.93;6.58;;;;;;;21.66;100.00;99092.41;1422161;91;21369;-77
2023/08/29 02:21:29;;;;;;;16.25;7.00;;;;;;;21.57;100.00;99100.13;1433693;91;21534;-77
2023/08/29 02:23:57;;;;;;;11.75;6.45;;;;;;;21.49;100.00;99114.02;1432541;90;22264;-77
2023/08/29 02:26:24;;;;;;;11.40;6.85;;;;;;;21.39;100.00;99105.30;1438468;90;21302;-77
2023/08/29 02:28:57;;;;;;;14.47;6.70;;;;;;;21.39;100.00;99105.30;1420686;91;21558;-79
2023/08/29 02:31:25;;;;;;;15.90;7.35;;;;;;;21.42;100.00;99093.22;1435796;90;21926;-78
2023/08/29 02:33:53;;;;;;;12.82;6.75;;;;;;;21.37;100.00;99093.96;1428118;90;21935;-78
2023/08/29 02:36:19;;;;;;;11.97;6.75;;;;;;;21.32;100.00;99104.63;1421690;91;21508;-78
2023/08/29 02:38:46;;;;;;;12.15;7.67;;;;;;;21.29;100.00;99098.40;1429466;91;21531;-78
2023/08/29 02:41:12;;;;;;;10.20;6.70;;;;;;;21.23;100.00;99065.77;1428014;90;21502;-79
2023/08/29 02:43:39;;;;;;;16.60;6.33;;;;;;;21.24;100.00;99088.94;1425580;91;22464;-79
2023/08/29 02:46:05;;;;;;;16.93;8.48;;;;;;;21.24;100.00;99088.94;1434253;90;21517;-79
2023/08/29 02:48:31;;;;;;;21.75;7.87;;;;;;;21.19;100.00;99081.07;1423161;91;21399;-78
2023/08/29 02:50:57;;;;;;;16.60;7.30;;;;;;;21.16;100.00;99066.78;1420550;91;21378;-78
2023/08/29 02:53:24;;;;;;;22.42;8.73;;;;;;;21.13;100.00;99079.92;1430004;91;22499;-78
2023/08/29 02:55:52;;;;;;;17.10;7.25;;;;;;;21.11;100.00;99073.43;1422086;91;21391;-78
2023/08/29 02:58:19;;;;;;;13.28;7.97;;;;;;;21.09;100.00;99068.85;1428928;90;21294;-79
2023/08/29 03:00:45;;;;;;;18.40;8.15;;;;;;;21.10;100.00;99089.83;1438350;90;21427;-78
2023/08/29 03:03:13;;;;;;;12.58;7.47;;;;;;;21.10;100.00;99096.56;1434347;91;22292;-79
2023/08/29 03:05:42;;;;;;;14.13;7.30;;;;;;;21.08;100.00;99106.20;1434124;90;21309;-79
2023/08/29 03:08:07;;;;;;;13.20;6.40;;;;;;;21.07;100.00;99097.87;1425579;90;21434;-79
2023/08/29 03:10:38;;;;;;;14.53;7.00;;;;;;;21.08;100.00;99082.00;1436785;90;21338;-79
2023/08/29 03:13:04;;;;;;;14.60;7.85;;;;;;;21.10;100.00;99072.34;1431535;91;21356;-79
2023/08/29 03:15:33;;;;;;;19.07;6.67;;;;;;;21.11;100.00;99083.38;1432627;90;21376;-78
2023/08/29 03:18:00;;;;;;;15.53;6.58;;;;;;;21.10;100.00;99096.02;1431872;90;21434;-78
2023/08/29 03:20:27;;;;;;;19.80;7.15;;;;;;;21.11;100.00;99100.33;1427091;91;21375;-79
2023/08/29 03:22:53;;;;;;;13.60;6.90;;;;;;;21.09;100.00;99089.03;1427208;91;21369;-79
2023/08/29 03:25:21;;;;;;;16.35;6.80;;;;;;;21.04;100.00;99091.64;1429080;91;22863;-79
2023/08/29 03:27:47;;;;;;;17.70;7.17;;;;;;;20.96;100.00;99090.72;1421554;91;21436;-78
2023/08/29 03:30:15;;;;;;;19.90;7.45;;;;;;;20.90;100.00;99089.83;1432050;91;21368;-79
2023/08/29 03:32:41;;;;;;;15.48;5.92;;;;;;;20.86;100.00;99084.67;1418601;91;21318;-78
2023/08/29 03:35:08;;;;;;;15.60;6.95;;;;;;;20.84;100.00;99078.73;1434814;90;21434;-80
2023/08/29 03:37:34;;;;;;;15.83;7.20;;;;;;;20.81;100.00;99085.94;1437695;91;22374;-79
2023/08/29 03:40:00;;;;;;;16.10;8.05;;;;;;;20.80;100.00;99088.86;1436968;90;21353;-79
2023/08/29 03:42:26;;;;;;;13.78;7.65;;;;;;;20.77;100.00;99096.08;1422747;91;21407;-79
2023/08/29 03:44:52;;;;;;;14.13;6.85;;;;;;;20.74;100.00;99093.35;1410142;91;21503;-78
2023/08/29 03:47:19;;;;;;;13.00;6.25;;;;;;;20.68;100.00;99089.77;1435185;90;22374;-78
2023/08/29 03:49:45;;;;;;;15.43;6.53;;;;;;;20.65;100.00;99082.73;1427198;91;21451;-79
2023/08/29 03:52:13;;;;;;;13.53;6.37;;;;;;;20.64;100.00;99081.92;1427086;91;21340;-79
2023/08/29 03:54:39;;;;;;;14.20;7.08;;;;;;;20.66;100.00;99077.66;1423659;91;21537;-79
2023/08/29 03:57:05;;;;;;;22.10;6.90;;;;;;;20.66;100.00;99071.75;1434164;91;22256;-79
2023/08/29 03:59:31;;;;;;;20.77;6.95;;;;;;;20.69;100.00;99075.29;1430825;90;21390;-80
2023/08/29 04:01:58;;;;;;;17.32;7.00;;;;;;;20.70;100.00;99076.09;1418252;91;21584;-80
2023/08/29 04:04:24;;;;;;;10.88;6.87;;;;;;;20.69;100.00;99077.98;1415722;91;21341;-79
2023/08/29 04:06:50;;;;;;;14.78;7.10;;;;;;;20.68;100.00;99074.18;1423296;90;22367;-79
2023/08/29 04:09:16;;;;;;;15.30;6.47;;;;;;;20.65;100.00;99067.42;1424824;91;21405;-80
2023/08/29 04:11:42;;;;;;;17.60;6.45;;;;;;;20.66;100.00;99066.38;1434914;90;21360;-79
2023/08/29 04:14:08;;;;;;;17.98;6.72;;;;;;;20.68;100.00;99061.55;1421984;91;21340;-79
2023/08/29 04:16:35;;;;;;;20.90;9.33;;;;;;;20.69;100.00;99060.50;1431107;91;22295;-80
2023/08/29 04:19:01;;;;;;;14.18;7.75;;;;;;;20.67;100.00;99054.55;1427865;91;21392;-79
2023/08/29 04:21:27;;;;;;;14.00;6.62;;;;;;;20.68;100.00;99067.45;1429384;90;21323;-80
2023/08/29 04:23:53;;;;;;;14.30;6.75;;;;;;;20.69;100.00;99067.77;1412244;91;21377;-80
2023/08/29 04:26:21;;;;;;;13.58;7.15;;;;;;;20.71;100.00;99066.96;1432049;90;22285;-80
2023/08/29 04:28:47;;;;;;;11.70;7.37;;;;;;;20.74;100.00;99062.44;1415184;91;21385;-79
2023/08/29 04:31:13;;;;;;;17.10;7.40;;;;;;;20.79;100.00;99061.70;1428993;90;22299;-78
2023/08/29 04:33:42;;;;;;;16.80;7.70;;;;;;;20.87;100.00;99068.01;1423132;91;21450;-79
2023/08/29 04:36:08;;;;;;;26.00;7.78;;;;;;;20.94;100.00;99069.47;1426401;90;22470;-78
2023/08/29 04:38:35;;;;;;;17.10;8.00;;;;;;;21.01;100.00;99062.55;1435184;90;21430;-77
2023/08/29 04:41:01;;;;;;;22.58;8.25;;;;;;;21.10;100.00;99054.33;1432429;90;21419;-80
2023/08/29 04:43:27;;;;;;;19.00;9.03;;;;;;;21.10;100.00;99053.52;1435159;90;21515;-79
2023/08/29 04:45:54;;;;;;;14.28;8.58;;;;;;;21.23;100.00;99073.30;1425989;91;21413;-79
2023/08/29 04:48:20;;;;;;;12.10;8.83;;;;;;;21.23;100.00;99073.30;1432958;91;22597;-77
2023/08/29 04:50:46;;;;;;;23.25;8.38;;;;;;;21.23;100.00;99065.23;1423539;91;21429;-77
2023/08/29 04:53:12;;;;;;;12.40;7.17;;;;;;;21.23;100.00;99065.23;1433241;90;21843;-77
2023/08/29 04:55:39;;;;;;;13.80;7.03;;;;;;;21.29;100.00;99076.88;1435848;91;21407;-78
2023/08/29 04:58:05;;;;;;;14.43;6.65;;;;;;;21.31;100.00;99069.38;1435128;91;21331;-77
2023/08/29 05:00:31;;;;;;;12.80;7.05;;;;;;;21.31;100.00;99065.34;1430916;91;21390;-78
2023/08/29 05:02:57;;;;;;;19.87;8.98;;;;;;;21.37;100.00;99060.32;1427438;91;21592;-83
2023/08/29 05:05:24;;;;;;;17.30;7.83;;;;;;;21.37;100.00;99060.32;1427244;91;22559;-81
2023/08/29 05:07:50;;;;;;;25.80;7.62;;;;;;;21.39;100.00;99062.24;1416663;91;21400;-80
2023/08/29 05:10:16;;;;;;;12.55;7.15;;;;;;;21.41;100.00;99060.12;1437717;91;21332;-82
2023/08/29 05:12:42;;;;;;;20.55;7.67;;;;;;;21.43;100.00;99059.31;1425496;91;21384;-80
2023/08/29 05:15:09;;;;;;;13.90;6.58;;;;;;;21.49;100.00;99065.06;1426541;91;22190;-82
2023/08/29 05:17:36;;;;;;;17.62;7.50;;;;;;;21.58;100.00;99068.92;1427469;90;21309;-83
2023/08/29 05:20:03;;;;;;;20.75;6.90;;;;;;;21.64;100.00;99052.30;1414523;91;22320;-81
2023/08/29 05:22:29;;;;;;;14.18;6.58;;;;;;;21.69;100.00;99040.20;1440763;91;21412;-82
2023/08/29 05:24:55;;;;;;;14.63;7.03;;;;;;;21.81;100.00;99042.23;1427801;91;21562;-81
2023/08/29 05:27:21;;;;;;;11.03;6.50;;;;;;;21.89;100.00;99035.55;1425687;91;21281;-80
2023/08/29 05:29:48;;;;;;;15.28;7.03;;;;;;;21.98;100.00;99037.25;1424617;91;22412;-82
2023/08/29 05:32:14;;;;;;;13.38;7.35;;;;;;;22.08;100.00;99042.20;1431284;91;21274;-81
2023/08/29 05:34:40;;;;;;;15.23;6.28;;;;;;;22.20;100.00;99042.05;1433286;90;21815;-81
2023/08/29 05:37:06;;;;;;;16.17;6.95;;;;;;;22.34;100.00;99041.63;1425410;91;21628;-81
2023/08/29 05:39:33;;;;;;;13.62;7.17;;;;;;;22.45;100.00;99037.94;1424751;91;22346;-81
2023/08/29 05:41:59;;;;;;;17.98;7.62;;;;;;;22.56;100.00;99036.94;1424427;91;21370;-81
2023/08/29 05:44:25;;;;;;;13.75;6.92;;;;;;;22.64;100.00;99049.09;1441836;90;21534;-81
2023/08/29 05:46:51;;;;;;;12.37;6.80;;;;;;;22.71;100.00;99049.70;1428960;91;21370;-81
2023/08/29 05:49:17;;;;;;;11.15;7.20;;;;;;;22.80;100.00;99059.45;1423996;91;21577;-82
2023/08/29 05:51:45;;;;;;;14.70;6.65;;;;;;;22.87;100.00;99063.55;1435104;90;21420;-83
2023/08/29 05:54:11;;;;;;;14.43;7.00;;;;;;;22.98;100.00;99067.12;1420725;91;21355;-81
2023/08/29 05:56:37;;;;;;;8.28;6.30;;;;;;;23.10;100.00;99062.35;1424308;91;22035;-82
2023/08/29 05:59:05;;;;;;;11.05;6.55;;;;;;;23.26;100.00;99061.87;1441740;91;21331;-78
2023/08/29 06:01:31;;;;;;;13.53;6.60;;;;;;;23.37;100.00;99066.23;1437924;91;21368;-82
2023/08/29 06:03:58;;;;;;;14.13;5.58;;;;;;;23.46;100.00;99068.42;1433284;91;21405;-81
2023/08/29 06:06:24;;;;;;;16.40;7.50;;;;;;;23.50;100.00;99073.01;1432543;90;22489;-82
2023/08/29 06:08:50;;;;;;;12.07;5.80;;;;;;;23.56;100.00;99071.98;1430231;91;21588;-82
2023/08/29 06:11:16;;;;;;;10.65;4.97;;;;;;;23.59;100.00;99064.69;1426166;91;21478;-82
2023/08/29 06:13:42;;;;;;;9.95;5.83;;;;;;;23.59;100.00;99063.85;1428249;91;22278;-84
2023/08/29 06:16:09;;;;;;;18.62;6.42;;;;;;;23.57;100.00;99066.03;1432232;90;21404;-82
2023/08/29 06:18:35;;;;;;;15.03;6.65;;;;;;;23.53;100.00;99065.73;1428759;91;21578;-81
2023/08/29 06:21:02;;;;;;;12.43;6.37;;;;;;;23.50;100.00;99077.61;1428029;91;21392;-83
2023/08/29 06:23:28;;;;;;;16.10;6.65;;;;;;;23.50;100.00;99069.50;1420429;91;21585;-83
2023/08/29 06:25:55;;;;;;;17.12;5.58;;;;;;;23.55;100.00;99070.87;1431148;90;22936;-82
2023/08/29 06:28:22;;;;;;;23.77;6.90;;;;;;;23.59;100.00;99069.25;1431432;90;21352;-81
2023/08/29 06:30:48;;;;;;;10.32;5.53;;;;;;;23.71;100.00;99065.83;1425291;91;21393;-80
2023/08/29 06:33:14;;;;;;;15.05;5.75;;;;;;;23.90;100.00;99058.55;1424645;91;21463;-83
2023/08/29 06:35:40;;;;;;;16.52;6.70;;;;;;;24.01;100.00;99055.59;1427129;91;21397;-87
2023/08/29 06:38:07;;;;;;;16.35;5.50;;;;;;;24.14;100.00;99055.61;1433248;90;21413;-85
2023/08/29 06:40:33;;;;;;;19.82;6.65;;;;;;;24.20;100.00;99059.94;1422679;91;21521;-86
2023/08/29 06:42:59;;;;;;;11.05;4.85;;;;;;;24.24;100.00;99065.06;1430786;91;22346;-85
2023/08/29 06:45:26;;;;;;;10.50;5.05;;;;;;;24.23;100.00;99075.61;1405406;91;21422;-87
2023/08/29 06:47:52;;;;;;;17.15;5.58;;;;;;;24.24;100.00;99082.62;1421889;91;21480;-86
2023/08/29 06:50:18;;;;;;;18.40;6.12;;;;;;;24.25;100.00;99086.14;1430254;91;22390;-86
2023/08/29 06:52:50;;;;;;;11.83;5.72;;;;;;;24.26;100.00;99092.64;1428102;90;21390;-86
2023/08/29 06:55:17;;;;;;;12.03;6.05;;;;;;;24.24;100.00;99098.85;1433349;91;21599;-87
2023/08/29 06:57:43;;;;;;;16.48;6.30;;;;;;;24.26;100.00;99100.75;1418601;91;21495;-87
2023/08/29 07:00:13;;;;;;;11.88;4.90;;;;;;;24.29;100.00;99100.21;1427063;90;21406;-79
2023/08/29 07:02:39;;;;;;;9.98;5.42;;;;;;;24.36;100.00;99103.98;1433990;91;22226;-82
2023/08/29 07:05:06;;;;;;;11.03;6.10;;;;;;;24.40;100.00;99101.55;1427709;91;21442;-84
2023/08/29 07:07:32;;;;;;;16.73;6.45;;;;;;;24.47;100.00;99099.42;1427408;91;22099;-84
2023/08/29 07:09:58;;;;;;;15.35;6.28;;;;;;;24.54;100.00;99099.95;1417721;91;22257;-83
2023/08/29 07:12:25;;;;;;;15.25;5.55;;;;;;;24.62;100.00;99096.70;1421966;91;21525;-83
2023/08/29 07:14:51;;;;;;;14.87;5.85;;;;;;;24.72;100.00;99105.37;1430510;90;21346;-84
2023/08/29 07:17:17;;;;;;;8.65;5.03;;;;;;;24.86;100.00;99111.00;1508990;90;21352;-82
2023/08/29 07:19:44;;;;;;;9.93;5.15;;;;;;;25.02;100.00;99109.89;1352729;92;21458;-85
2023/08/29 07:22:10;;;;;;;17.55;5.17;;;;;;;25.15;100.00;99113.42;1360939;91;22352;-88
2023/08/29 07:24:39;;;;;;;17.20;5.10;;;;;;;25.26;100.00;99114.72;1360873;91;21318;-82
2023/08/29 07:27:04;;;;;;;11.10;5.22;;;;;;;25.38;100.00;99117.95;1358384;90;21546;-86
2023/08/29 07:35:54;;;;;;;15.93;5.58;;;;;;;25.73;100.00;99118.88;1355954;106;21399;-84
2023/08/29 07:38:20;;;;;;;25.02;5.22;;;;;;;25.88;100.00;99125.59;1477253;91;21445;-87
2023/08/29 07:40:47;;;;;;;17.25;5.33;;;;;;;26.00;100.00;99136.08;1359495;92;21370;-85
2023/08/29 07:43:23;;;;;;;12.25;4.78;;;;;;;26.11;100.00;99131.67;1358196;91;21550;-82
2023/08/29 07:45:52;;;;;;;13.03;4.97;;;;;;;26.18;100.00;99128.66;1359008;91;21386;-83
2023/08/29 07:48:17;;;;;;;22.60;5.42;;;;;;;26.25;100.00;99135.11;1470552;91;21370;-83
2023/08/29 07:50:43;;;;;;;17.05;5.20;;;;;;;26.31;100.00;99130.71;1509938;91;22196;-86
2023/08/29 07:53:10;;;;;;;14.38;5.22;;;;;;;26.37;100.00;99140.98;1428016;91;21400;-87
2023/08/29 07:55:36;;;;;;;14.33;5.40;;;;;;;26.44;100.00;99143.36;1426607;91;21428;-88
2023/08/29 07:58:03;;;;;;;10.08;5.25;;;;;;;26.51;100.00;99135.75;1430590;91;23010;-82
2023/08/29 08:00:29;;;;;;;11.03;4.62;;;;;;;26.61;100.00;99137.56;1428788;91;21636;-85
2023/08/29 08:02:56;;;;;;;14.47;5.10;;;;;;;26.73;100.00;99132.59;1432223;91;21400;-85
2023/08/29 08:05:22;;;;;;;6.97;4.55;;;;;;;26.89;100.00;99135.40;1427406;91;21540;-86
2023/08/29 08:07:48;;;;;;;17.00;5.08;;;;;;;27.12;100.00;99134.36;1403411;92;22450;-84
2023/08/29 08:10:15;;;;;;;20.23;4.80;;;;;;;27.43;100.00;99131.58;1434517;91;21341;-85
2023/08/29 08:12:42;;;;;;;11.95;4.55;;;;;;;27.73;100.00;99132.28;1431332;91;22612;-85
2023/08/29 08:15:09;;;;;;;11.33;4.42;;;;;;;28.01;100.00;99130.57;1428313;91;22346;-86
2023/08/29 08:17:37;;;;;;;18.80;4.95;;;;;;;28.25;100.00;99141.35;1428726;91;21421;-89
2023/08/29 08:20:08;;;;;;;8.80;4.40;;;;;;;28.47;100.00;99137.25;1430823;91;21451;-86
2023/08/29 08:22:34;;;;;;;11.65;4.60;;;;;;;28.64;100.00;99145.67;1508850;91;21585;-86
2023/08/29 08:25:00;;;;;;;10.88;4.47;;;;;;;28.81;98.52;99142.95;1363913;91;21371;-83
2023/08/29 08:27:26;;;;;;;7.22;3.98;;;;;;;28.95;98.75;99142.42;1358944;91;21230;-83
2023/08/29 08:29:52;;;;;;;8.25;4.10;;;;;;;29.07;98.20;99141.40;1358755;91;21349;-83
2023/08/29 08:32:19;;;;;;;17.73;4.12;;;;;;;29.19;97.36;99137.61;1358921;91;22164;-85
2023/08/29 08:34:45;;;;;;;16.97;4.33;;;;;;;29.29;95.39;99139.88;1358623;91;21253;-83
2023/08/29 08:37:12;;;;;;;13.35;4.25;;;;;;;29.36;94.06;99136.22;1365728;91;21471;-85
2023/08/29 08:39:38;;;;;;;10.85;4.50;;;;;;;29.45;85.13;99133.02;1395950;88;21318;-85
2023/08/29 08:42:04;;;;;;;19.98;4.37;;;;;;;29.61;84.24;99143.88;1370703;90;21412;-81
2023/08/29 08:44:36;;;;;;;15.03;4.83;;;;;;;29.78;83.60;99145.17;1395761;88;21214;-86
2023/08/29 08:47:00;;;;;;;8.38;3.85;;;;;;;29.91;83.71;99139.69;1516272;90;21368;-84
2023/08/29 08:49:26;;;;;;;11.35;3.92;;;;;;;30.07;82.56;99138.00;1364809;91;22329;-85
2023/08/29 08:51:54;;;;;;;9.60;4.12;;;;;;;30.19;67.71;99138.81;1365258;90;21213;-85
2023/08/29 08:54:20;;;;;;;18.80;3.25;;;;;;;30.25;65.20;99134.88;1377295;90;22286;-84
2023/08/29 08:56:48;;;;;;;11.38;3.85;;;;;;;30.25;59.00;99132.95;1364985;90;21302;-86
2023/08/29 08:59:15;;;;;;;11.12;3.55;;;;;;;30.44;59.25;99133.31;1363614;90;22152;-86
2023/08/29 09:01:41;;;;;;;7.60;3.70;;;;;;;30.62;59.21;99128.80;1442499;88;21493;-85
2023/08/29 09:04:07;;;;;;;14.60;4.17;;;;;;;30.80;56.21;99125.06;1436242;91;21331;-86
2023/08/29 09:06:35;;;;;;;10.50;3.55;;;;;;;30.95;55.70;99121.91;1439107;90;21568;-83
2023/08/29 09:09:25;;;;;;;11.03;3.83;;;;;;;31.10;44.45;99124.78;1365450;91;21390;-83
2023/08/29 09:11:54;;;;;;;8.73;3.67;;;;;;;31.24;44.76;99121.95;1555965;88;21185;-83
2023/08/29 09:14:21;;;;;;;7.00;3.57;;;;;;;31.43;43.88;99116.26;1363050;90;21406;-85
2023/08/29 09:16:49;;;;;;;7.80;4.15;;;;;;;31.59;43.54;99117.97;1530598;88;22161;-86
2023/08/29 09:19:17;;;;;;;9.58;3.65;;;;;;;31.69;40.47;99117.11;1511243;91;22204;-84
2023/08/29 09:21:44;;;;;;;14.70;5.45;;;;;;;31.80;39.58;99114.88;1517743;90;21189;-85
2023/08/29 09:24:12;;;;;;;11.20;3.72;;;;;;;32.03;40.18;99119.67;1363483;90;21272;-83
2023/08/29 09:26:43;;;;;;;9.18;4.15;;;;;;;32.25;40.20;99124.72;1409201;88;22299;-87
2023/08/29 09:29:20;;;;;;;8.78;3.87;;;;;;;32.40;39.38;99125.61;1436713;90;22372;-84
2023/08/29 09:31:47;;;;;;;8.38;3.62;;;;;;;32.49;38.16;99125.05;1435613;90;21338;-85
2023/08/29 09:34:31;;;;;;;17.80;4.10;;;;;;;32.56;38.39;99131.39;1364485;90;22130;-81
2023/08/29 09:36:58;;;;;;;10.05;3.90;;;;;;;32.68;37.94;99128.78;1518312;91;21967;-84
2023/08/29 09:39:26;;;;;;;8.18;3.42;;;;;;;32.78;37.89;99130.38;1511903;90;21427;-83
2023/08/29 09:42:08;;;;;;;9.80;4.72;;;;;;;32.79;36.87;99131.41;1394206;88;22183;-86
2023/08/29 09:44:37;;;;;;;11.38;3.55;;;;;;;32.75;35.27;99141.42;1512738;90;21383;-87
2023/08/29 09:47:05;;;;;;;7.37;3.42;;;;;;;32.74;35.22;99143.94;1517738;91;21206;-84
2023/08/29 09:49:46;;;;;;;12.75;4.22;;;;;;;32.78;34.79;99147.62;1457349;88;21726;-86
2023/08/29 09:52:14;;;;;;;6.12;3.12;;;;;;;32.76;34.18;99149.88;1556053;88;22095;-86
2023/08/29 09:54:51;;;;;;;11.33;3.47;;;;;;;32.76;34.05;99152.61;1399959;88;21361;-86
2023/08/29 09:57:19;;;;;;;8.05;3.60;;;;;;;32.75;33.00;99161.17;1469550;91;21315;-85
2023/08/29 09:59:47;;;;;;;7.87;3.40;;;;;;;32.76;33.41;99161.40;1438687;90;23043;-82
2023/08/29 10:02:14;;;;;;;15.08;3.42;;;;;;;32.76;33.21;99156.72;1439825;90;21900;-85
2023/08/29 10:04:47;;;;;;;11.20;3.35;;;;;;;32.82;33.15;99168.31;1438465;90;21383;-81
2023/08/29 10:07:18;;;;;;;19.50;4.22;;;;;;;32.84;33.04;99174.84;1470513;88;21324;-91
2023/08/29 10:09:44;;;;;;;8.63;3.27;;;;;;;32.89;33.25;99177.42;1466681;88;22521;-84
2023/08/29 10:12:12;;;;;;;13.10;3.40;;;;;;;33.01;33.47;99174.83;1436180;90;21504;-85
2023/08/29 10:14:40;;;;;;;14.45;3.37;;;;;;;33.11;33.17;99185.42;1454438;88;22329;-85
2023/08/29 10:17:07;;;;;;;5.78;3.98;;;;;;;33.16;33.05;99185.24;1437149;91;21367;-79
2023/08/29 10:19:34;;;;;;;9.35;3.40;;;;;;;33.23;32.97;99184.19;1431567;90;21426;-81
2023/08/29 10:22:01;;;;;;;11.28;4.28;;;;;;;33.26;33.25;99190.92;1435714;91;21464;-81
2023/08/29 10:24:28;;;;;;;18.10;3.87;;;;;;;33.20;33.53;99187.59;1427391;90;21367;-82
2023/08/29 10:26:55;;;;;;;10.45;4.45;;;;;;;33.15;34.14;99188.33;1434486;90;21361;-80
2023/08/29 10:29:22;;;;;;;14.83;4.40;;;;;;;32.91;34.26;99191.58;1400347;88;21465;-80
2023/08/29 10:35:50;;;;;;;13.62;4.22;;;;;;;32.60;34.63;99193.98;1556114;88;21170;-80
2023/08/29 10:38:20;;;;;;;8.98;3.37;;;;;;;32.72;34.42;99207.82;1498409;88;22139;-80
2023/08/29 10:40:46;;;;;;;12.18;4.40;;;;;;;32.78;34.57;99198.30;1378213;91;21568;-80
2023/08/29 10:43:19;;;;;;;26.10;4.72;;;;;;;32.84;34.76;99191.28;1439704;90;21368;-80
2023/08/29 10:45:59;;;;;;;14.33;4.15;;;;;;;32.96;34.91;99194.95;1468195;88;21601;-80
2023/08/29 10:48:44;;;;;;;7.67;4.10;;;;;;;33.06;35.03;99191.64;1474040;88;21420;-80
2023/08/29 10:51:22;;;;;;;14.35;4.05;;;;;;;33.18;34.25;99191.21;1469656;88;21998;-81
2023/08/29 10:54:05;;;;;;;8.03;3.60;;;;;;;33.14;34.20;99187.50;1512191;90;21287;-81
2023/08/29 10:56:31;;;;;;;11.18;3.62;;;;;;;32.96;34.61;99188.67;1517021;90;21516;-79
2023/08/29 10:58:59;;;;;;;13.85;4.30;;;;;;;32.85;34.41;99190.14;1396653;88;21346;-79
2023/08/29 11:01:30;;;;;;;11.40;4.20;;;;;;;32.90;34.83;99189.41;1399925;88;21332;-81
2023/08/29 11:04:03;;;;;;;6.58;3.47;;;;;;;32.88;34.69;99190.86;1556011;88;21237;-81
2023/08/29 11:06:57;;;;;;;11.93;3.65;;;;;;;32.89;34.52;99193.28;1360829;91;21383;-81
2023/08/29 11:09:23;;;;;;;6.05;3.27;;;;;;;32.90;34.25;99187.23;1429888;88;21495;-80
2023/08/29 11:12:09;;;;;;;8.83;3.58;;;;;;;32.98;34.32;99190.52;1362870;90;21213;-80
2023/08/29 11:14:56;;;;;;;12.28;4.25;;;;;;;33.07;34.20;99183.68;1362655;90;21332;-80
2023/08/29 11:17:24;;;;;;;25.02;5.70;;;;;;;33.10;34.14;99189.30;1368426;91;21338;-80
2023/08/29 11:19:58;;;;;;;14.78;3.87;;;;;;;33.10;35.02;99193.41;1363622;90;21377;-80
2023/08/29 11:22:28;;;;;;;13.50;4.20;;;;;;;33.01;35.36;99180.31;1368164;91;21265;-80
2023/08/29 11:24:55;;;;;;;18.50;5.15;;;;;;;33.00;35.36;99182.79;1505532;90;21235;-81
2023/08/29 11:27:29;;;;;;;20.02;4.47;;;;;;;33.00;35.35;99181.42;1436437;91;21361;-82
2023/08/29 11:29:55;;;;;;;18.87;3.95;;;;;;;33.05;35.01;99171.66;1428826;91;21556;-81
2023/08/29 11:32:22;;;;;;;14.93;3.70;;;;;;;33.01;34.38;99174.83;1421754;91;21382;-81